Cosco Melbourne — V7IF5 — position and weather

sailwx.info

Track history (hours):
 
Tides and Currents Weather Stations Pressure Air Temp Water Temp Dewpoint Dewpoint Depression Visibility Wind Speed Wind Dir Waves Ship Positions

Cosco Melbourne

Last reported at 2016-Jul-03 01:32 UTC. Time now 2016-Jul-26 02:38 UTC.
Position N 31°16' E 121°52'.
Warning: this ship's position is 23 days out of date.

Type: Ship (hazmat cat A). MMSI: 538002366.

Date/timePositionNaut miles runAvg speedWind from/ knotsBaromVisibWave heightAir tempDewpointWater temp
2016-Jul-03 01:32N 31°16' E 121°52'1211.9
2016-Jul-03 00:33N 31°20' E 121°39'0 0.2
2016-Jul-02 23:33N 31°20' E 121°39'0 0.0
2016-Jul-02 22:33N 31°20' E 121°39'0 0.0
2016-Jul-02 21:33N 31°20' E 121°39'0 0.0
2016-Jul-02 20:33N 31°20' E 121°39'0 0.0
2016-Jul-02 19:33N 31°20' E 121°39'0 0.0
2016-Jul-02 18:33N 31°20' E 121°39'0 0.0
2016-Jul-02 17:33N 31°20' E 121°39'0 0.0
2016-Jul-02 16:33N 31°20' E 121°39'10 8.7
2016-Jul-02 15:27N 31°17' E 121°49'127 4.4
2016-Jul-01 10:19N 29°21' E 122°51'42312.2
2016-Jun-29 23:33N 22°44' E 120°08'1413.7
2016-Jun-29 22:33N 22°33' E 120°16'4 3.5
2016-Jun-29 21:33N 22°33' E 120°19'0 0.0
2016-Jun-29 20:33N 22°33' E 120°19'0 0.0
2016-Jun-29 19:33N 22°33' E 120°19'0 0.0
2016-Jun-29 18:32N 22°33' E 120°19'0 0.0
2016-Jun-29 17:32N 22°33' E 120°19'0 0.0
2016-Jun-29 16:29N 22°33' E 120°19'0 0.0
2016-Jun-29 15:30N 22°33' E 120°19'0 0.0
2016-Jun-29 14:33N 22°33' E 120°19'0 0.1
2016-Jun-29 13:33N 22°33' E 120°20'7 6.6
2016-Jun-29 12:33N 22°30' E 120°13'1110.9
2016-Jun-29 11:33N 22°19' E 120°12'  
Track history (hours):
 
Tides and Currents Weather Stations Pressure Air Temp Water Temp Dewpoint Dewpoint Depression Visibility Wind Speed Wind Dir Waves Ship Positions

Cosco Melbourne

Last reported at 2016-Jul-03 01:32 UTC. Time now 2016-Jul-26 02:38 UTC.
Position N 31°16' E 121°52'.
Warning: this ship's position is 23 days out of date.

Type: Ship (hazmat cat A). MMSI: 538002366.

Date/timePositionNaut miles runAvg speedWind from/ knotsBaromVisibWave heightAir tempDewpointWater temp
2016-Jul-03 01:32N 31°16' E 121°52'1211.9
2016-Jul-03 00:33N 31°20' E 121°39'0 0.2
2016-Jul-02 23:33N 31°20' E 121°39'0 0.0
2016-Jul-02 22:33N 31°20' E 121°39'0 0.0
2016-Jul-02 21:33N 31°20' E 121°39'0 0.0
2016-Jul-02 20:33N 31°20' E 121°39'0 0.0
2016-Jul-02 19:33N 31°20' E 121°39'0 0.0
2016-Jul-02 18:33N 31°20' E 121°39'0 0.0
2016-Jul-02 17:33N 31°20' E 121°39'0 0.0
2016-Jul-02 16:33N 31°20' E 121°39'10 8.7
2016-Jul-02 15:27N 31°17' E 121°49'127 4.4
2016-Jul-01 10:19N 29°21' E 122°51'42312.2
2016-Jun-29 23:33N 22°44' E 120°08'1413.7
2016-Jun-29 22:33N 22°33' E 120°16'4 3.5
2016-Jun-29 21:33N 22°33' E 120°19'0 0.0
2016-Jun-29 20:33N 22°33' E 120°19'0 0.0
2016-Jun-29 19:33N 22°33' E 120°19'0 0.0
2016-Jun-29 18:32N 22°33' E 120°19'0 0.0
2016-Jun-29 17:32N 22°33' E 120°19'0 0.0
2016-Jun-29 16:29N 22°33' E 120°19'0 0.0
2016-Jun-29 15:30N 22°33' E 120°19'0 0.0
2016-Jun-29 14:33N 22°33' E 120°19'0 0.1
2016-Jun-29 13:33N 22°33' E 120°20'7 6.6
2016-Jun-29 12:33N 22°30' E 120°13'1110.9
2016-Jun-29 11:33N 22°19' E 120°12'  

Dump ship's entire track history